sensor_id;sensor_type;location;lat;lon;timestamp;P1;durP1;ratioP1;P2;durP2;ratioP2
67869;SDS011;54673;52.262;6.830;2023-04-01T00:01:43;1.03;;;0.90;;
67869;SDS011;54673;52.262;6.830;2023-04-01T00:04:08;2.63;;;0.97;;
67869;SDS011;54673;52.262;6.830;2023-04-01T00:06:34;1.23;;;0.70;;
67869;SDS011;54673;52.262;6.830;2023-04-01T00:09:00;3.67;;;0.90;;
67869;SDS011;54673;52.262;6.830;2023-04-01T00:11:25;0.85;;;0.60;;
67869;SDS011;54673;52.262;6.830;2023-04-01T00:13:52;1.10;;;0.77;;
67869;SDS011;54673;52.262;6.830;2023-04-01T00:16:18;1.83;;;0.82;;
67869;SDS011;54673;52.262;6.830;2023-04-01T00:18:43;2.77;;;1.10;;
67869;SDS011;54673;52.262;6.830;2023-04-01T00:21:09;2.17;;;0.82;;
67869;SDS011;54673;52.262;6.830;2023-04-01T00:23:35;3.93;;;1.10;;
67869;SDS011;54673;52.262;6.830;2023-04-01T00:26:01;2.30;;;0.85;;
67869;SDS011;54673;52.262;6.830;2023-04-01T00:28:27;3.60;;;0.90;;
67869;SDS011;54673;52.262;6.830;2023-04-01T00:30:53;2.53;;;0.88;;
67869;SDS011;54673;52.262;6.830;2023-04-01T00:33:19;4.78;;;1.00;;
67869;SDS011;54673;52.262;6.830;2023-04-01T00:35:45;2.53;;;0.90;;
67869;SDS011;54673;52.262;6.830;2023-04-01T00:38:11;2.10;;;0.80;;
67869;SDS011;54673;52.262;6.830;2023-04-01T00:40:41;2.57;;;1.00;;
67869;SDS011;54673;52.262;6.830;2023-04-01T00:43:09;3.77;;;0.90;;
67869;SDS011;54673;52.262;6.830;2023-04-01T00:45:43;1.30;;;0.70;;
67869;SDS011;54673;52.262;6.830;2023-04-01T00:48:20;2.93;;;0.87;;
67869;SDS011;54673;52.262;6.830;2023-04-01T00:50:54;1.73;;;0.90;;
67869;SDS011;54673;52.262;6.830;2023-04-01T00:53:30;1.67;;;0.90;;
67869;SDS011;54673;52.262;6.830;2023-04-01T00:56:02;2.47;;;0.80;;
67869;SDS011;54673;52.262;6.830;2023-04-01T00:58:31;3.37;;;0.90;;
67869;SDS011;54673;52.262;6.830;2023-04-01T01:01:00;2.35;;;1.20;;
67869;SDS011;54673;52.262;6.830;2023-04-01T01:03:26;1.43;;;0.70;;
67869;SDS011;54673;52.262;6.830;2023-04-01T01:11:03;1.87;;;0.80;;
67869;SDS011;54673;52.262;6.830;2023-04-01T01:13:48;2.63;;;0.88;;
67869;SDS011;54673;52.262;6.830;2023-04-01T01:16:27;2.45;;;0.85;;
67869;SDS011;54673;52.262;6.830;2023-04-01T01:21:42;2.63;;;0.98;;
67869;SDS011;54673;52.262;6.830;2023-04-01T01:27:11;1.50;;;0.77;;
67869;SDS011;54673;52.262;6.830;2023-04-01T01:32:36;1.92;;;0.80;;
67869;SDS011;54673;52.262;6.830;2023-04-01T01:35:22;2.73;;;1.00;;
67869;SDS011;54673;52.262;6.830;2023-04-01T01:37:52;1.83;;;0.90;;
67869;SDS011;54673;52.262;6.830;2023-04-01T01:40:21;0.90;;;0.60;;
67869;SDS011;54673;52.262;6.830;2023-04-01T01:42:50;1.93;;;0.70;;
67869;SDS011;54673;52.262;6.830;2023-04-01T01:45:20;1.38;;;0.90;;
67869;SDS011;54673;52.262;6.830;2023-04-01T01:47:48;3.72;;;0.80;;
67869;SDS011;54673;52.262;6.830;2023-04-01T01:50:16;1.23;;;0.70;;
67869;SDS011;54673;52.262;6.830;2023-04-01T01:52:42;2.42;;;1.38;;
67869;SDS011;54673;52.262;6.830;2023-04-01T01:58:02;1.33;;;0.60;;
67869;SDS011;54673;52.262;6.830;2023-04-01T02:00:46;1.20;;;0.80;;
67869;SDS011;54673;52.262;6.830;2023-04-01T02:03:16;0.53;;;0.50;;
67869;SDS011;54673;52.262;6.830;2023-04-01T02:05:44;1.40;;;0.80;;
67869;SDS011;54673;52.262;6.830;2023-04-01T02:08:15;1.00;;;0.70;;
67869;SDS011;54673;52.262;6.830;2023-04-01T02:10:56;1.00;;;0.60;;
67869;SDS011;54673;52.262;6.830;2023-04-01T02:13:39;0.90;;;0.60;;
67869;SDS011;54673;52.262;6.830;2023-04-01T02:16:26;1.37;;;0.60;;
67869;SDS011;54673;52.262;6.830;2023-04-01T02:18:56;2.70;;;0.70;;
67869;SDS011;54673;52.262;6.830;2023-04-01T02:21:24;1.95;;;0.80;;
67869;SDS011;54673;52.262;6.830;2023-04-01T02:23:54;0.70;;;0.67;;
67869;SDS011;54673;52.262;6.830;2023-04-01T02:26:21;2.00;;;0.50;;
67869;SDS011;54673;52.262;6.830;2023-04-01T02:28:50;0.75;;;0.50;;
67869;SDS011;54673;52.262;6.830;2023-04-01T02:31:17;1.60;;;0.47;;
67869;SDS011;54673;52.262;6.830;2023-04-01T02:33:43;0.70;;;0.50;;
67869;SDS011;54673;52.262;6.830;2023-04-01T02:36:10;1.38;;;0.52;;
67869;SDS011;54673;52.262;6.830;2023-04-01T02:38:40;1.43;;;0.57;;
67869;SDS011;54673;52.262;6.830;2023-04-01T02:41:07;0.80;;;0.60;;
67869;SDS011;54673;52.262;6.830;2023-04-01T02:43:33;1.07;;;0.50;;
67869;SDS011;54673;52.262;6.830;2023-04-01T02:45:58;0.90;;;0.60;;
67869;SDS011;54673;52.262;6.830;2023-04-01T02:48:24;1.23;;;0.70;;
67869;SDS011;54673;52.262;6.830;2023-04-01T02:50:50;1.33;;;0.75;;
67869;SDS011;54673;52.262;6.830;2023-04-01T02:53:15;2.27;;;0.60;;
67869;SDS011;54673;52.262;6.830;2023-04-01T02:55:41;1.10;;;0.60;;
67869;SDS011;54673;52.262;6.830;2023-04-01T02:58:07;0.73;;;0.68;;
67869;SDS011;54673;52.262;6.830;2023-04-01T03:00:33;0.87;;;0.70;;
67869;SDS011;54673;52.262;6.830;2023-04-01T03:02:59;1.10;;;0.63;;
67869;SDS011;54673;52.262;6.830;2023-04-01T03:05:24;1.15;;;0.60;;
67869;SDS011;54673;52.262;6.830;2023-04-01T03:07:50;1.05;;;0.63;;
67869;SDS011;54673;52.262;6.830;2023-04-01T03:10:16;0.57;;;0.40;;
67869;SDS011;54673;52.262;6.830;2023-04-01T03:12:42;0.90;;;0.63;;
67869;SDS011;54673;52.262;6.830;2023-04-01T03:15:09;0.70;;;0.50;;
67869;SDS011;54673;52.262;6.830;2023-04-01T03:17:36;1.00;;;0.52;;
67869;SDS011;54673;52.262;6.830;2023-04-01T03:20:02;0.80;;;0.60;;
67869;SDS011;54673;52.262;6.830;2023-04-01T03:22:29;0.90;;;0.70;;
67869;SDS011;54673;52.262;6.830;2023-04-01T03:24:55;0.95;;;0.50;;
67869;SDS011;54673;52.262;6.830;2023-04-01T03:27:21;0.83;;;0.60;;
67869;SDS011;54673;52.262;6.830;2023-04-01T03:29:46;0.73;;;0.53;;
67869;SDS011;54673;52.262;6.830;2023-04-01T03:32:12;1.17;;;0.60;;
67869;SDS011;54673;52.262;6.830;2023-04-01T03:34:37;1.03;;;0.60;;
67869;SDS011;54673;52.262;6.830;2023-04-01T03:37:03;0.95;;;0.80;;
67869;SDS011;54673;52.262;6.830;2023-04-01T03:39:29;0.90;;;0.77;;
67869;SDS011;54673;52.262;6.830;2023-04-01T03:41:56;0.88;;;0.75;;
67869;SDS011;54673;52.262;6.830;2023-04-01T03:44:21;0.90;;;0.80;;
67869;SDS011;54673;52.262;6.830;2023-04-01T03:46:47;0.87;;;0.70;;
67869;SDS011;54673;52.262;6.830;2023-04-01T03:49:12;1.50;;;0.80;;
67869;SDS011;54673;52.262;6.830;2023-04-01T03:51:38;0.90;;;0.70;;
67869;SDS011;54673;52.262;6.830;2023-04-01T03:54:05;0.73;;;0.73;;
67869;SDS011;54673;52.262;6.830;2023-04-01T03:56:31;1.07;;;0.70;;
67869;SDS011;54673;52.262;6.830;2023-04-01T03:58:56;1.00;;;0.70;;
67869;SDS011;54673;52.262;6.830;2023-04-01T04:01:22;1.40;;;1.03;;
67869;SDS011;54673;52.262;6.830;2023-04-01T04:03:48;0.80;;;0.70;;
67869;SDS011;54673;52.262;6.830;2023-04-01T04:06:14;0.70;;;0.70;;
67869;SDS011;54673;52.262;6.830;2023-04-01T04:08:41;1.17;;;0.70;;
67869;SDS011;54673;52.262;6.830;2023-04-01T04:11:07;2.30;;;0.90;;
67869;SDS011;54673;52.262;6.830;2023-04-01T04:13:33;1.30;;;0.70;;
67869;SDS011;54673;52.262;6.830;2023-04-01T04:15:58;0.90;;;0.80;;
67869;SDS011;54673;52.262;6.830;2023-04-01T04:18:24;0.90;;;0.60;;
67869;SDS011;54673;52.262;6.830;2023-04-01T04:20:50;1.07;;;0.80;;
67869;SDS011;54673;52.262;6.830;2023-04-01T04:23:16;1.17;;;0.77;;
67869;SDS011;54673;52.262;6.830;2023-04-01T04:25:56;1.10;;;1.00;;
67869;SDS011;54673;52.262;6.830;2023-04-01T04:28:24;1.10;;;0.97;;
67869;SDS011;54673;52.262;6.830;2023-04-01T04:30:51;1.00;;;0.90;;
67869;SDS011;54673;52.262;6.830;2023-04-01T04:33:17;0.85;;;0.70;;
67869;SDS011;54673;52.262;6.830;2023-04-01T04:35:42;1.20;;;1.00;;
67869;SDS011;54673;52.262;6.830;2023-04-01T04:38:08;0.90;;;0.80;;
67869;SDS011;54673;52.262;6.830;2023-04-01T04:40:35;1.10;;;0.80;;
67869;SDS011;54673;52.262;6.830;2023-04-01T04:43:02;1.00;;;0.90;;
67869;SDS011;54673;52.262;6.830;2023-04-01T04:45:28;1.25;;;0.90;;
67869;SDS011;54673;52.262;6.830;2023-04-01T04:47:53;1.87;;;0.90;;
67869;SDS011;54673;52.262;6.830;2023-04-01T04:50:19;0.85;;;0.68;;
67869;SDS011;54673;52.262;6.830;2023-04-01T04:52:45;1.10;;;1.00;;
67869;SDS011;54673;52.262;6.830;2023-04-01T04:55:10;2.03;;;0.80;;
67869;SDS011;54673;52.262;6.830;2023-04-01T04:57:36;1.13;;;0.80;;
67869;SDS011;54673;52.262;6.830;2023-04-01T05:00:02;1.43;;;0.70;;
67869;SDS011;54673;52.262;6.830;2023-04-01T05:02:28;0.70;;;0.70;;
67869;SDS011;54673;52.262;6.830;2023-04-01T05:04:54;0.90;;;0.60;;
67869;SDS011;54673;52.262;6.830;2023-04-01T05:07:19;1.10;;;0.83;;
67869;SDS011;54673;52.262;6.830;2023-04-01T05:09:45;1.10;;;0.80;;
67869;SDS011;54673;52.262;6.830;2023-04-01T05:12:11;0.90;;;0.90;;
67869;SDS011;54673;52.262;6.830;2023-04-01T05:14:38;1.23;;;0.80;;
67869;SDS011;54673;52.262;6.830;2023-04-01T05:17:03;1.10;;;1.00;;
67869;SDS011;54673;52.262;6.830;2023-04-01T05:19:29;1.33;;;0.90;;
67869;SDS011;54673;52.262;6.830;2023-04-01T05:21:55;1.07;;;0.80;;
67869;SDS011;54673;52.262;6.830;2023-04-01T05:24:20;0.90;;;0.80;;
67869;SDS011;54673;52.262;6.830;2023-04-01T05:26:46;0.83;;;0.70;;
67869;SDS011;54673;52.262;6.830;2023-04-01T05:29:11;1.45;;;0.90;;
67869;SDS011;54673;52.262;6.830;2023-04-01T05:31:37;1.73;;;0.70;;
67869;SDS011;54673;52.262;6.830;2023-04-01T05:34:02;1.00;;;0.90;;
67869;SDS011;54673;52.262;6.830;2023-04-01T05:36:28;1.98;;;1.00;;
67869;SDS011;54673;52.262;6.830;2023-04-01T05:38:56;0.70;;;0.70;;
67869;SDS011;54673;52.262;6.830;2023-04-01T05:41:22;1.10;;;0.80;;
67869;SDS011;54673;52.262;6.830;2023-04-01T05:43:47;1.43;;;0.83;;
67869;SDS011;54673;52.262;6.830;2023-04-01T05:46:13;1.40;;;0.90;;
67869;SDS011;54673;52.262;6.830;2023-04-01T05:48:38;0.85;;;0.70;;
67869;SDS011;54673;52.262;6.830;2023-04-01T05:51:04;0.93;;;0.87;;
67869;SDS011;54673;52.262;6.830;2023-04-01T05:53:30;0.93;;;0.85;;
67869;SDS011;54673;52.262;6.830;2023-04-01T05:55:55;1.00;;;0.83;;
67869;SDS011;54673;52.262;6.830;2023-04-01T05:58:21;0.98;;;0.88;;
67869;SDS011;54673;52.262;6.830;2023-04-01T06:00:48;0.67;;;0.60;;
67869;SDS011;54673;52.262;6.830;2023-04-01T06:03:13;1.07;;;0.97;;
67869;SDS011;54673;52.262;6.830;2023-04-01T06:05:40;1.20;;;1.10;;
67869;SDS011;54673;52.262;6.830;2023-04-01T06:08:11;0.80;;;0.70;;
67869;SDS011;54673;52.262;6.830;2023-04-01T06:11:26;1.38;;;0.80;;
67869;SDS011;54673;52.262;6.830;2023-04-01T06:16:39;1.30;;;1.05;;
67869;SDS011;54673;52.262;6.830;2023-04-01T06:19:31;1.00;;;0.83;;
67869;SDS011;54673;52.262;6.830;2023-04-01T06:30:21;1.17;;;0.90;;
67869;SDS011;54673;52.262;6.830;2023-04-01T06:43:32;1.73;;;0.82;;
67869;SDS011;54673;52.262;6.830;2023-04-01T06:49:19;1.25;;;1.00;;
67869;SDS011;54673;52.262;6.830;2023-04-01T06:51:50;0.93;;;0.80;;
67869;SDS011;54673;52.262;6.830;2023-04-01T06:54:40;0.80;;;0.80;;
67869;SDS011;54673;52.262;6.830;2023-04-01T06:59:48;1.00;;;0.63;;
67869;SDS011;54673;52.262;6.830;2023-04-01T07:05:08;0.90;;;0.60;;
67869;SDS011;54673;52.262;6.830;2023-04-01T07:07:45;0.70;;;0.60;;
67869;SDS011;54673;52.262;6.830;2023-04-01T07:10:20;1.10;;;0.65;;
67869;SDS011;54673;52.262;6.830;2023-04-01T07:12:54;2.05;;;0.70;;
67869;SDS011;54673;52.262;6.830;2023-04-01T07:15:28;0.70;;;0.60;;
67869;SDS011;54673;52.262;6.830;2023-04-01T07:18:02;0.85;;;0.50;;
67869;SDS011;54673;52.262;6.830;2023-04-01T07:20:32;0.60;;;0.60;;
67869;SDS011;54673;52.262;6.830;2023-04-01T07:23:00;0.63;;;0.60;;
67869;SDS011;54673;52.262;6.830;2023-04-01T07:28:02;0.60;;;0.50;;
67869;SDS011;54673;52.262;6.830;2023-04-01T07:30:33;1.00;;;0.70;;
67869;SDS011;54673;52.262;6.830;2023-04-01T07:33:26;0.60;;;0.50;;
67869;SDS011;54673;52.262;6.830;2023-04-01T07:36:13;0.60;;;0.53;;
67869;SDS011;54673;52.262;6.830;2023-04-01T07:39:14;0.60;;;0.60;;
67869;SDS011;54673;52.262;6.830;2023-04-01T07:41:49;1.25;;;0.45;;
67869;SDS011;54673;52.262;6.830;2023-04-01T07:44:23;1.37;;;0.63;;
67869;SDS011;54673;52.262;6.830;2023-04-01T07:49:51;2.43;;;0.80;;
67869;SDS011;54673;52.262;6.830;2023-04-01T08:12:31;1.00;;;0.60;;
67869;SDS011;54673;52.262;6.830;2023-04-01T08:15:23;1.70;;;0.57;;
67869;SDS011;54673;52.262;6.830;2023-04-01T08:20:57;0.80;;;0.57;;
67869;SDS011;54673;52.262;6.830;2023-04-01T08:23:30;1.88;;;0.50;;
67869;SDS011;54673;52.262;6.830;2023-04-01T08:29:15;2.20;;;0.57;;
67869;SDS011;54673;52.262;6.830;2023-04-01T08:34:52;0.90;;;0.65;;
67869;SDS011;54673;52.262;6.830;2023-04-01T08:37:32;1.10;;;0.80;;
67869;SDS011;54673;52.262;6.830;2023-04-01T08:48:16;0.95;;;0.60;;
67869;SDS011;54673;52.262;6.830;2023-04-01T08:50:54;1.00;;;0.63;;
67869;SDS011;54673;52.262;6.830;2023-04-01T08:53:46;1.58;;;0.77;;
67869;SDS011;54673;52.262;6.830;2023-04-01T08:56:33;3.80;;;0.90;;
67869;SDS011;54673;52.262;6.830;2023-04-01T09:10:00;1.83;;;0.80;;
67869;SDS011;54673;52.262;6.830;2023-04-01T09:37:54;2.25;;;0.88;;
67869;SDS011;54673;52.262;6.830;2023-04-01T09:40:54;1.70;;;0.90;;
67869;SDS011;54673;52.262;6.830;2023-04-01T09:51:59;3.63;;;0.95;;
67869;SDS011;54673;52.262;6.830;2023-04-01T09:57:12;2.92;;;1.10;;
67869;SDS011;54673;52.262;6.830;2023-04-01T10:16:49;4.53;;;1.73;;
67869;SDS011;54673;52.262;6.830;2023-04-01T10:22:11;1.83;;;1.02;;
67869;SDS011;54673;52.262;6.830;2023-04-01T10:33:22;7.78;;;1.35;;
67869;SDS011;54673;52.262;6.830;2023-04-01T10:39:03;6.30;;;1.80;;
67869;SDS011;54673;52.262;6.830;2023-04-01T10:47:39;4.60;;;1.50;;
67869;SDS011;54673;52.262;6.830;2023-04-01T10:50:36;4.97;;;1.98;;
67869;SDS011;54673;52.262;6.830;2023-04-01T11:10:15;6.17;;;2.57;;
67869;SDS011;54673;52.262;6.830;2023-04-01T11:13:33;5.60;;;2.53;;
67869;SDS011;54673;52.262;6.830;2023-04-01T11:30:15;5.05;;;2.53;;
67869;SDS011;54673;52.262;6.830;2023-04-01T11:32:54;6.93;;;2.30;;
67869;SDS011;54673;52.262;6.830;2023-04-01T11:40:43;5.47;;;2.30;;
67869;SDS011;54673;52.262;6.830;2023-04-01T11:43:29;6.43;;;2.70;;
67869;SDS011;54673;52.262;6.830;2023-04-01T11:46:11;6.43;;;2.30;;
67869;SDS011;54673;52.262;6.830;2023-04-01T11:54:26;7.20;;;2.20;;
67869;SDS011;54673;52.262;6.830;2023-04-01T11:57:30;5.75;;;2.20;;
67869;SDS011;54673;52.262;6.830;2023-04-01T12:05:58;4.93;;;2.00;;
67869;SDS011;54673;52.262;6.830;2023-04-01T12:11:24;5.17;;;2.07;;
67869;SDS011;54673;52.262;6.830;2023-04-01T12:17:25;4.53;;;2.00;;
67869;SDS011;54673;52.262;6.830;2023-04-01T12:20:26;6.73;;;2.03;;
67869;SDS011;54673;52.262;6.830;2023-04-01T12:22:57;3.30;;;1.80;;
67869;SDS011;54673;52.262;6.830;2023-04-01T12:36:26;4.20;;;1.50;;
67869;SDS011;54673;52.262;6.830;2023-04-01T12:39:17;5.95;;;1.85;;
67869;SDS011;54673;52.262;6.830;2023-04-01T12:44:25;4.05;;;1.95;;
67869;SDS011;54673;52.262;6.830;2023-04-01T12:47:28;2.50;;;1.70;;
67869;SDS011;54673;52.262;6.830;2023-04-01T13:06:52;8.37;;;1.80;;
67869;SDS011;54673;52.262;6.830;2023-04-01T13:09:52;3.17;;;1.73;;
67869;SDS011;54673;52.262;6.830;2023-04-01T13:28:32;2.57;;;1.40;;
67869;SDS011;54673;52.262;6.830;2023-04-01T13:31:31;4.15;;;1.20;;
67869;SDS011;54673;52.262;6.830;2023-04-01T13:37:04;2.13;;;1.60;;
67869;SDS011;54673;52.262;6.830;2023-04-01T13:42:24;2.30;;;1.38;;
67869;SDS011;54673;52.262;6.830;2023-04-01T13:45:00;3.20;;;1.57;;
67869;SDS011;54673;52.262;6.830;2023-04-01T13:53:59;3.47;;;1.37;;
67869;SDS011;54673;52.262;6.830;2023-04-01T14:02:38;2.83;;;1.40;;
67869;SDS011;54673;52.262;6.830;2023-04-01T14:16:10;2.33;;;1.33;;
67869;SDS011;54673;52.262;6.830;2023-04-01T14:24:21;1.67;;;1.00;;
67869;SDS011;54673;52.262;6.830;2023-04-01T14:27:12;1.92;;;1.20;;
67869;SDS011;54673;52.262;6.830;2023-04-01T14:35:20;2.13;;;0.98;;
67869;SDS011;54673;52.262;6.830;2023-04-01T14:38:30;2.38;;;1.50;;
67869;SDS011;54673;52.262;6.830;2023-04-01T14:43:38;2.78;;;1.30;;
67869;SDS011;54673;52.262;6.830;2023-04-01T14:49:24;3.90;;;1.57;;
67869;SDS011;54673;52.262;6.830;2023-04-01T14:52:04;3.97;;;1.30;;
67869;SDS011;54673;52.262;6.830;2023-04-01T14:54:41;3.33;;;1.30;;
67869;SDS011;54673;52.262;6.830;2023-04-01T14:57:14;2.67;;;1.50;;
67869;SDS011;54673;52.262;6.830;2023-04-01T14:59:50;2.03;;;1.30;;
67869;SDS011;54673;52.262;6.830;2023-04-01T15:05:15;1.90;;;1.20;;
67869;SDS011;54673;52.262;6.830;2023-04-01T15:16:11;3.60;;;1.30;;
67869;SDS011;54673;52.262;6.830;2023-04-01T15:18:59;4.40;;;1.20;;
67869;SDS011;54673;52.262;6.830;2023-04-01T15:21:44;2.40;;;1.00;;
67869;SDS011;54673;52.262;6.830;2023-04-01T15:24:56;2.43;;;1.00;;
67869;SDS011;54673;52.262;6.830;2023-04-01T15:30:23;6.30;;;1.30;;
67869;SDS011;54673;52.262;6.830;2023-04-01T15:33:02;2.97;;;1.10;;
67869;SDS011;54673;52.262;6.830;2023-04-01T15:43:40;3.75;;;1.00;;
67869;SDS011;54673;52.262;6.830;2023-04-01T15:48:46;4.53;;;0.90;;
67869;SDS011;54673;52.262;6.830;2023-04-01T15:54:32;4.95;;;1.10;;
67869;SDS011;54673;52.262;6.830;2023-04-01T16:00:31;2.83;;;1.03;;
67869;SDS011;54673;52.262;6.830;2023-04-01T16:08:38;1.70;;;0.90;;
67869;SDS011;54673;52.262;6.830;2023-04-01T16:11:22;6.78;;;1.80;;
67869;SDS011;54673;52.262;6.830;2023-04-01T16:20:02;7.18;;;1.38;;
67869;SDS011;54673;52.262;6.830;2023-04-01T16:22:38;6.00;;;1.20;;
67869;SDS011;54673;52.262;6.830;2023-04-01T16:28:09;3.70;;;0.90;;
67869;SDS011;54673;52.262;6.830;2023-04-01T16:37:00;3.05;;;0.95;;
67869;SDS011;54673;52.262;6.830;2023-04-01T16:39:43;1.55;;;0.80;;
67869;SDS011;54673;52.262;6.830;2023-04-01T16:48:14;2.15;;;0.98;;
67869;SDS011;54673;52.262;6.830;2023-04-01T16:51:04;1.93;;;1.00;;
67869;SDS011;54673;52.262;6.830;2023-04-01T16:53:41;3.45;;;1.08;;
67869;SDS011;54673;52.262;6.830;2023-04-01T16:56:12;2.40;;;0.90;;
67869;SDS011;54673;52.262;6.830;2023-04-01T16:58:43;4.63;;;1.10;;
67869;SDS011;54673;52.262;6.830;2023-04-01T17:01:21;2.83;;;1.13;;
67869;SDS011;54673;52.262;6.830;2023-04-01T17:03:53;1.08;;;0.98;;
67869;SDS011;54673;52.262;6.830;2023-04-01T17:06:36;1.40;;;0.97;;
67869;SDS011;54673;52.262;6.830;2023-04-01T17:28:52;1.23;;;0.98;;
67869;SDS011;54673;52.262;6.830;2023-04-01T17:39:49;2.33;;;1.10;;
67869;SDS011;54673;52.262;6.830;2023-04-01T17:42:39;3.72;;;0.90;;
67869;SDS011;54673;52.262;6.830;2023-04-01T17:58:58;1.00;;;0.80;;
67869;SDS011;54673;52.262;6.830;2023-04-01T18:01:35;1.50;;;0.97;;
67869;SDS011;54673;52.262;6.830;2023-04-01T18:04:37;1.63;;;1.10;;
67869;SDS011;54673;52.262;6.830;2023-04-01T18:07:19;1.65;;;1.13;;
67869;SDS011;54673;52.262;6.830;2023-04-01T18:12:43;8.60;;;1.30;;
67869;SDS011;54673;52.262;6.830;2023-04-01T18:15:28;2.77;;;0.93;;
67869;SDS011;54673;52.262;6.830;2023-04-01T18:20:58;4.40;;;1.20;;
67869;SDS011;54673;52.262;6.830;2023-04-01T18:24:00;4.63;;;0.67;;
67869;SDS011;54673;52.262;6.830;2023-04-01T18:26:37;8.33;;;1.03;;
67869;SDS011;54673;52.262;6.830;2023-04-01T18:29:22;3.50;;;0.88;;
67869;SDS011;54673;52.262;6.830;2023-04-01T18:31:51;2.00;;;0.80;;
67869;SDS011;54673;52.262;6.830;2023-04-01T18:37:01;1.75;;;0.90;;
67869;SDS011;54673;52.262;6.830;2023-04-01T18:39:42;3.77;;;0.90;;
67869;SDS011;54673;52.262;6.830;2023-04-01T18:45:18;3.17;;;0.97;;
67869;SDS011;54673;52.262;6.830;2023-04-01T18:50:52;5.80;;;0.95;;
67869;SDS011;54673;52.262;6.830;2023-04-01T18:53:40;6.70;;;1.00;;
67869;SDS011;54673;52.262;6.830;2023-04-01T18:56:30;2.23;;;0.83;;
67869;SDS011;54673;52.262;6.830;2023-04-01T18:59:23;2.20;;;1.20;;
67869;SDS011;54673;52.262;6.830;2023-04-01T19:04:56;1.87;;;1.10;;
67869;SDS011;54673;52.262;6.830;2023-04-01T19:15:46;1.88;;;1.27;;
67869;SDS011;54673;52.262;6.830;2023-04-01T19:26:40;3.58;;;1.20;;
67869;SDS011;54673;52.262;6.830;2023-04-01T19:34:49;5.25;;;0.90;;
67869;SDS011;54673;52.262;6.830;2023-04-01T19:40:27;1.23;;;0.90;;
67869;SDS011;54673;52.262;6.830;2023-04-01T19:43:11;1.42;;;1.00;;
67869;SDS011;54673;52.262;6.830;2023-04-01T19:45:54;2.67;;;1.00;;
67869;SDS011;54673;52.262;6.830;2023-04-01T19:48:48;1.88;;;1.25;;
67869;SDS011;54673;52.262;6.830;2023-04-01T19:51:25;1.25;;;0.95;;
67869;SDS011;54673;52.262;6.830;2023-04-01T19:54:01;1.67;;;1.13;;
67869;SDS011;54673;52.262;6.830;2023-04-01T19:59:23;3.50;;;0.98;;
67869;SDS011;54673;52.262;6.830;2023-04-01T20:04:38;1.50;;;1.00;;
67869;SDS011;54673;52.262;6.830;2023-04-01T20:07:07;3.08;;;0.90;;
67869;SDS011;54673;52.262;6.830;2023-04-01T20:10:04;1.83;;;0.90;;
67869;SDS011;54673;52.262;6.830;2023-04-01T20:15:36;2.72;;;1.10;;
67869;SDS011;54673;52.262;6.830;2023-04-01T20:18:16;1.58;;;1.10;;
67869;SDS011;54673;52.262;6.830;2023-04-01T20:21:06;1.73;;;0.90;;
67869;SDS011;54673;52.262;6.830;2023-04-01T20:24:01;2.72;;;1.63;;
67869;SDS011;54673;52.262;6.830;2023-04-01T20:26:33;2.17;;;0.98;;
67869;SDS011;54673;52.262;6.830;2023-04-01T20:29:24;1.20;;;0.80;;
67869;SDS011;54673;52.262;6.830;2023-04-01T20:32:06;2.00;;;0.95;;
67869;SDS011;54673;52.262;6.830;2023-04-01T20:37:32;1.90;;;1.10;;
67869;SDS011;54673;52.262;6.830;2023-04-01T20:40:37;1.67;;;1.00;;
67869;SDS011;54673;52.262;6.830;2023-04-01T20:46:23;1.30;;;1.00;;
67869;SDS011;54673;52.262;6.830;2023-04-01T20:51:53;1.80;;;1.50;;
67869;SDS011;54673;52.262;6.830;2023-04-01T21:00:26;3.03;;;1.38;;
67869;SDS011;54673;52.262;6.830;2023-04-01T21:14:31;5.67;;;2.10;;
67869;SDS011;54673;52.262;6.830;2023-04-01T21:17:17;5.55;;;2.22;;
67869;SDS011;54673;52.262;6.830;2023-04-01T21:25:38;3.30;;;1.65;;
67869;SDS011;54673;52.262;6.830;2023-04-01T21:28:26;5.25;;;1.92;;
67869;SDS011;54673;52.262;6.830;2023-04-01T21:31:17;4.20;;;1.77;;
67869;SDS011;54673;52.262;6.830;2023-04-01T21:37:08;3.38;;;1.70;;
67869;SDS011;54673;52.262;6.830;2023-04-01T21:50:33;2.70;;;1.60;;
67869;SDS011;54673;52.262;6.830;2023-04-01T21:53:21;2.40;;;1.40;;
67869;SDS011;54673;52.262;6.830;2023-04-01T21:56:16;2.40;;;1.37;;
67869;SDS011;54673;52.262;6.830;2023-04-01T22:04:31;1.33;;;1.17;;
67869;SDS011;54673;52.262;6.830;2023-04-01T22:07:18;2.13;;;1.35;;
67869;SDS011;54673;52.262;6.830;2023-04-01T22:12:19;1.30;;;1.17;;
67869;SDS011;54673;52.262;6.830;2023-04-01T22:17:59;2.67;;;1.37;;
67869;SDS011;54673;52.262;6.830;2023-04-01T22:23:25;2.10;;;1.30;;
67869;SDS011;54673;52.262;6.830;2023-04-01T22:25:58;1.90;;;1.43;;
67869;SDS011;54673;52.262;6.830;2023-04-01T22:28:44;1.60;;;1.30;;
67869;SDS011;54673;52.262;6.830;2023-04-01T22:31:17;3.47;;;1.30;;
67869;SDS011;54673;52.262;6.830;2023-04-01T22:39:36;2.20;;;1.50;;
67869;SDS011;54673;52.262;6.830;2023-04-01T22:42:13;1.80;;;1.40;;
67869;SDS011;54673;52.262;6.830;2023-04-01T22:45:03;2.40;;;1.33;;
67869;SDS011;54673;52.262;6.830;2023-04-01T22:48:11;1.50;;;1.40;;
67869;SDS011;54673;52.262;6.830;2023-04-01T22:50:44;1.87;;;1.43;;
67869;SDS011;54673;52.262;6.830;2023-04-01T22:53:34;3.25;;;1.30;;
67869;SDS011;54673;52.262;6.830;2023-04-01T22:56:08;2.80;;;1.63;;
67869;SDS011;54673;52.262;6.830;2023-04-01T22:58:46;2.70;;;1.47;;
67869;SDS011;54673;52.262;6.830;2023-04-01T23:01:20;2.45;;;1.60;;
67869;SDS011;54673;52.262;6.830;2023-04-01T23:03:51;2.67;;;1.52;;
67869;SDS011;54673;52.262;6.830;2023-04-01T23:06:21;3.90;;;1.93;;
67869;SDS011;54673;52.262;6.830;2023-04-01T23:11:28;2.00;;;1.80;;
67869;SDS011;54673;52.262;6.830;2023-04-01T23:16:46;2.80;;;1.77;;
67869;SDS011;54673;52.262;6.830;2023-04-01T23:19:23;3.00;;;1.90;;
67869;SDS011;54673;52.262;6.830;2023-04-01T23:21:54;2.00;;;1.45;;
67869;SDS011;54673;52.262;6.830;2023-04-01T23:24:41;1.88;;;1.55;;
67869;SDS011;54673;52.262;6.830;2023-04-01T23:27:17;3.93;;;1.90;;
67869;SDS011;54673;52.262;6.830;2023-04-01T23:29:43;3.00;;;1.95;;
67869;SDS011;54673;52.262;6.830;2023-04-01T23:32:15;2.00;;;1.80;;
67869;SDS011;54673;52.262;6.830;2023-04-01T23:34:50;3.05;;;1.70;;
67869;SDS011;54673;52.262;6.830;2023-04-01T23:37:18;3.05;;;1.80;;
67869;SDS011;54673;52.262;6.830;2023-04-01T23:39:45;1.47;;;1.33;;
67869;SDS011;54673;52.262;6.830;2023-04-01T23:42:15;3.55;;;1.75;;
67869;SDS011;54673;52.262;6.830;2023-04-01T23:44:45;2.67;;;1.38;;
67869;SDS011;54673;52.262;6.830;2023-04-01T23:47:23;2.53;;;1.80;;
67869;SDS011;54673;52.262;6.830;2023-04-01T23:49:52;2.05;;;1.73;;
67869;SDS011;54673;52.262;6.830;2023-04-01T23:54:53;3.10;;;1.50;;
67869;SDS011;54673;52.262;6.830;2023-04-01T23:57:27;2.10;;;1.40;;
